Time;durP1;ratioP1;P1;durP2;ratioP2;P2;SDS_P1;SDS_P2;PMS_P1;PMS_P2;Temp;Humidity;BMP_temperature;BMP_pressure;BME280_temperature;BME280_humidity;BME280_pressure;Samples;Min_cycle;Max_cycle;Signal;HPM_P1;HPM_P2
2023/01/02 00:02:26;;;;;;;0.10;0.10;;;;;;;10.97;100.00;100932.75;5019317;28;20599;-75
2023/01/02 00:04:51;;;;;;;0.10;0.10;;;;;;;10.74;100.00;100898.63;5023719;28;20468;-74
2023/01/02 00:07:17;;;;;;;0.10;0.10;;;;;;;10.84;100.00;100931.03;5002562;28;20072;-74
2023/01/02 00:09:42;;;;;;;0.10;0.10;;;;;;;10.83;100.00;100918.59;5016339;28;20136;-75
2023/01/02 00:12:07;;;;;;;0.17;0.17;;;;;;;11.09;100.00;100911.16;5024588;28;20061;-74
2023/01/02 00:14:33;;;;;;;0.10;0.10;;;;;;;10.85;100.00;100913.94;5022425;28;20120;-76
2023/01/02 00:16:58;;;;;;;0.10;0.10;;;;;;;10.84;100.00;100904.19;4995740;28;20030;-73
2023/01/02 00:19:23;;;;;;;0.10;0.10;;;;;;;11.03;100.00;100900.88;5023596;28;20037;-75
2023/01/02 00:21:49;;;;;;;0.00;0.00;;;;;;;11.00;100.00;100932.50;5005648;28;20037;-75
2023/01/02 00:24:14;;;;;;;0.00;0.00;;;;;;;10.93;100.00;100935.66;5016238;28;20107;-74
2023/01/02 00:26:39;;;;;;;0.10;0.10;;;;;;;11.01;100.00;100937.75;5016873;28;20350;-74
2023/01/02 00:29:05;;;;;;;0.10;0.10;;;;;;;11.23;100.00;100920.81;5022425;28;20037;-74
2023/01/02 00:31:30;;;;;;;0.10;0.10;;;;;;;10.93;100.00;100906.13;5003433;28;20044;-74
2023/01/02 00:33:55;;;;;;;0.10;0.10;;;;;;;11.07;100.00;100888.91;5005816;28;20064;-79
2023/01/02 00:36:21;;;;;;;0.10;0.10;;;;;;;11.24;100.00;100911.75;5015799;28;20483;-75
2023/01/02 00:38:46;;;;;;;0.10;0.10;;;;;;;11.05;100.00;100906.16;5019470;28;20435;-74
2023/01/02 00:41:11;;;;;;;0.10;0.10;;;;;;;11.50;100.00;100919.56;5001168;28;20032;-73
2023/01/02 00:43:37;;;;;;;0.00;0.00;;;;;;;11.05;100.00;100893.56;5018357;28;20040;-74
2023/01/02 00:46:03;;;;;;;0.10;0.10;;;;;;;11.07;100.00;100886.22;4996395;28;20116;-74
2023/01/02 00:48:28;;;;;;;0.10;0.10;;;;;;;11.16;100.00;100907.97;5013313;28;21022;-75
2023/01/02 00:50:53;;;;;;;0.10;0.10;;;;;;;10.93;100.00;100890.00;5013071;28;20063;-74
2023/01/02 00:53:19;;;;;;;0.10;0.10;;;;;;;11.07;100.00;100886.22;5007206;28;20155;-74
2023/01/02 00:55:45;;;;;;;0.10;0.10;;;;;;;11.20;100.00;100887.94;5011421;28;20037;-74
2023/01/02 00:58:10;;;;;;;0.10;0.10;;;;;;;11.33;100.00;100899.41;4991724;28;20033;-75
2023/01/02 01:00:36;;;;;;;0.10;0.10;;;;;;;11.07;100.00;100872.78;4996060;28;20152;-75
2023/01/02 01:03:01;;;;;;;0.10;0.10;;;;;;;11.19;100.00;100892.47;5007802;28;20041;-75
2023/01/02 01:05:27;;;;;;;0.10;0.10;;;;;;;11.37;100.00;100887.44;5008652;28;20120;-75
2023/01/02 01:07:54;;;;;;;0.10;0.10;;;;;;;11.33;100.00;100880.59;5011781;28;21586;-76
2023/01/02 01:10:20;;;;;;;0.10;0.10;;;;;;;11.37;100.00;100897.34;4998334;28;20098;-75
2023/01/02 01:12:46;;;;;;;0.10;0.10;;;;;;;11.22;100.00;100851.06;5010191;28;20037;-75
2023/01/02 01:15:11;;;;;;;0.00;0.00;;;;;;;11.75;100.00;100888.00;5011408;28;20030;-75
2023/01/02 01:17:37;;;;;;;0.10;0.10;;;;;;;11.45;100.00;100868.00;4999695;28;20129;-75
2023/01/02 01:20:02;;;;;;;0.10;0.10;;;;;;;11.34;100.00;100859.97;5015120;28;20149;-74
2023/01/02 01:22:28;;;;;;;0.10;0.10;;;;;;;11.38;100.00;100864.97;5016930;28;20041;-75
2023/01/02 01:24:53;;;;;;;0.10;0.10;;;;;;;11.30;100.00;100870.09;5016436;28;20061;-73
2023/01/02 01:27:18;;;;;;;0.10;0.10;;;;;;;11.53;100.00;100884.38;5011550;28;20379;-73
2023/01/02 01:29:44;;;;;;;0.10;0.10;;;;;;;11.60;100.00;100886.56;5021137;28;20025;-74
2023/01/02 01:32:09;;;;;;;0.10;0.10;;;;;;;11.37;100.00;100862.41;5013237;28;20459;-74
2023/01/02 01:34:34;;;;;;;0.10;0.10;;;;;;;11.44;100.00;100871.66;5016033;28;20022;-74
2023/01/02 01:36:59;;;;;;;0.10;0.10;;;;;;;11.44;100.00;100852.00;5008949;28;20661;-74
2023/01/02 01:39:25;;;;;;;0.10;0.10;;;;;;;11.54;100.00;100853.81;5017626;28;20308;-74
2023/01/02 01:41:50;;;;;;;0.10;0.10;;;;;;;11.38;100.00;100870.34;4996886;28;20030;-75
2023/01/02 01:44:45;;;;;;;0.08;0.08;;;;;;;11.52;100.00;100898.78;5014230;28;20033;-74
2023/01/02 01:47:16;;;;;;;0.00;0.00;;;;;;;11.60;100.00;100865.91;4996837;28;20022;-73
2023/01/02 01:49:41;;;;;;;0.10;0.10;;;;;;;11.63;100.00;100889.84;5015258;28;20412;-74
2023/01/02 01:52:10;;;;;;;0.03;0.03;;;;;;;11.75;100.00;100908.66;5012168;28;20589;-74
2023/01/02 01:54:42;;;;;;;0.10;0.10;;;;;;;11.55;100.00;100897.69;4996948;28;20033;-73
2023/01/02 01:57:16;;;;;;;0.10;0.10;;;;;;;11.64;100.00;100888.03;5016117;28;20029;-74
2023/01/02 01:59:42;;;;;;;0.10;0.10;;;;;;;11.58;100.00;100873.22;5016502;28;20480;-74
2023/01/02 02:02:07;;;;;;;0.10;0.10;;;;;;;11.45;100.00;100894.03;5011671;28;20042;-74
2023/01/02 02:04:33;;;;;;;0.10;0.10;;;;;;;11.54;100.00;100898.66;5014664;28;20025;-74
2023/01/02 02:06:58;;;;;;;0.10;0.10;;;;;;;11.62;100.00;100893.53;5017785;28;20061;-73
2023/01/02 02:09:36;;;;;;;0.05;0.05;;;;;;;11.57;100.00;100884.13;5013563;28;20021;-75
2023/01/02 02:12:02;;;;;;;0.10;0.10;;;;;;;11.58;100.00;100888.53;5017734;28;20033;-74
2023/01/02 02:14:27;;;;;;;0.10;0.10;;;;;;;11.57;100.00;100890.34;5015388;28;20052;-74
2023/01/02 02:17:08;;;;;;;0.10;0.10;;;;;;;11.70;100.00;100890.19;5009899;28;20477;-74
2023/01/02 02:19:55;;;;;;;0.10;0.10;;;;;;;11.34;100.00;100892.22;5016995;28;20588;-73
2023/01/02 02:22:27;;;;;;;0.10;0.10;;;;;;;11.49;100.00;100890.97;5013585;28;20547;-74
2023/01/02 02:25:01;;;;;;;0.10;0.10;;;;;;;11.46;100.00;100901.13;5001812;28;20037;-73
2023/01/02 02:27:37;;;;;;;0.10;0.10;;;;;;;11.37;100.00;100897.34;5017165;28;20040;-73
2023/01/02 02:30:06;;;;;;;0.10;0.10;;;;;;;11.37;100.00;100882.06;5019939;28;20108;-73
2023/01/02 02:32:53;;;;;;;0.08;0.08;;;;;;;11.60;100.00;100902.72;5022499;28;20057;-73
2023/01/02 02:35:42;;;;;;;0.10;0.10;;;;;;;11.62;100.00;100881.91;5020880;28;20033;-74
2023/01/02 02:38:17;;;;;;;0.10;0.10;;;;;;;11.44;100.00;100886.97;5016627;28;20405;-73
2023/01/02 02:40:54;;;;;;;0.10;0.10;;;;;;;11.54;100.00;100894.16;5023807;28;20469;-73
2023/01/02 02:43:32;;;;;;;0.10;0.10;;;;;;;11.38;100.00;100897.22;5023390;28;20550;-76
2023/01/02 02:46:12;;;;;;;0.10;0.10;;;;;;;11.25;100.00;100883.06;5018760;28;20601;-75
2023/01/02 02:48:37;;;;;;;0.10;0.10;;;;;;;11.59;100.00;100891.06;5026391;28;20029;-77
2023/01/02 02:51:06;;;;;;;0.00;0.00;;;;;;;11.54;100.00;100894.16;5021260;28;20069;-76
2023/01/02 02:53:36;;;;;;;0.10;0.10;;;;;;;11.50;100.00;100902.59;5012510;28;20033;-76
2023/01/02 02:56:04;;;;;;;0.10;0.10;;;;;;;11.39;100.00;100880.13;5024315;28;20364;-75
2023/01/02 02:58:30;;;;;;;0.10;0.10;;;;;;;11.50;100.00;100881.94;5024052;28;20102;-76
2023/01/02 03:01:06;;;;;;;0.10;0.10;;;;;;;11.57;100.00;100884.97;5020834;28;20460;-73
2023/01/02 03:03:32;;;;;;;0.10;0.10;;;;;;;11.69;100.00;100892.03;5014999;28;20083;-73
2023/01/02 03:06:08;;;;;;;0.10;0.10;;;;;;;11.51;100.00;100897.09;5025276;28;20429;-72
2023/01/02 03:08:56;;;;;;;0.10;0.10;;;;;;;11.48;100.00;100897.31;5014796;28;20037;-73
2023/01/02 03:11:28;;;;;;;0.10;0.10;;;;;;;11.59;100.00;100880.31;5009559;28;20556;-73
2023/01/02 03:14:05;;;;;;;0.10;0.10;;;;;;;11.68;100.00;100879.56;5022434;28;20539;-73
2023/01/02 03:16:40;;;;;;;0.10;0.10;;;;;;;11.72;100.00;100884.72;5015899;28;20022;-73
2023/01/02 03:19:09;;;;;;;0.00;0.00;;;;;;;11.50;100.00;100857.72;5012962;28;20382;-75
2023/01/02 03:21:38;;;;;;;0.10;0.10;;;;;;;11.66;100.00;100875.28;4992393;28;20475;-74
2023/01/02 03:24:13;;;;;;;0.10;0.10;;;;;;;11.73;100.00;100886.41;5013166;28;20088;-73
2023/01/02 03:26:42;;;;;;;0.10;0.10;;;;;;;11.54;100.00;100891.47;5012836;28;20491;-72
2023/01/02 03:29:12;;;;;;;0.10;0.10;;;;;;;11.34;100.00;100871.56;5013543;28;20048;-74
2023/01/02 03:31:39;;;;;;;0.08;0.08;;;;;;;11.68;100.00;100884.09;5013707;28;20116;-74
2023/01/02 03:34:14;;;;;;;0.10;0.10;;;;;;;11.50;100.00;100879.25;5015680;28;20048;-74
2023/01/02 03:36:42;;;;;;;0.10;0.10;;;;;;;11.57;100.00;100893.03;5014230;28;20415;-74
2023/01/02 03:39:18;;;;;;;0.03;0.03;;;;;;;11.62;100.00;100893.53;5014034;28;21280;-73
2023/01/02 03:41:46;;;;;;;0.10;0.10;;;;;;;11.62;100.00;100885.44;5013615;28;20359;-74
2023/01/02 03:44:13;;;;;;;0.10;0.10;;;;;;;11.59;100.00;100866.88;5012546;28;20033;-76
2023/01/02 03:46:45;;;;;;;0.10;0.10;;;;;;;11.69;100.00;100893.88;4998956;28;20035;-75
2023/01/02 03:49:10;;;;;;;0.10;0.10;;;;;;;11.62;100.00;100895.38;5015352;28;20414;-74
2023/01/02 03:51:36;;;;;;;0.00;0.00;;;;;;;11.64;100.00;100894.25;5019665;28;20037;-73
2023/01/02 03:54:02;;;;;;;0.10;0.10;;;;;;;11.47;100.00;100884.88;5013479;28;20286;-75
2023/01/02 03:56:40;;;;;;;0.10;0.10;;;;;;;11.71;100.00;100897.28;5014112;28;20464;-75
2023/01/02 03:59:13;;;;;;;0.10;0.10;;;;;;;11.57;100.00;100901.09;5014343;28;20133;-76
2023/01/02 04:01:41;;;;;;;0.10;0.10;;;;;;;11.68;100.00;100913.66;5001614;28;20026;-74
2023/01/02 04:04:26;;;;;;;0.10;0.10;;;;;;;11.64;100.00;100901.47;5012401;28;20132;-74
2023/01/02 04:06:58;;;;;;;0.10;0.10;;;;;;;11.51;100.00;100907.84;5013375;28;20151;-74
2023/01/02 04:09:26;;;;;;;0.10;0.10;;;;;;;11.64;100.00;100915.75;5013017;28;20048;-73
2023/01/02 04:11:55;;;;;;;0.10;0.10;;;;;;;11.70;100.00;100914.41;5014182;28;20041;-76
2023/01/02 04:14:27;;;;;;;0.10;0.10;;;;;;;11.50;100.00;100871.19;5011297;28;20089;-74
2023/01/02 04:16:53;;;;;;;0.10;0.10;;;;;;;11.58;100.00;100893.91;5012218;28;20030;-76
2023/01/02 04:19:23;;;;;;;0.10;0.10;;;;;;;11.63;100.00;100915.91;5013698;28;20053;-76
2023/01/02 04:21:51;;;;;;;0.00;0.00;;;;;;;11.74;100.00;100901.59;5012566;28;20447;-75
2023/01/02 04:24:19;;;;;;;0.10;0.10;;;;;;;11.44;100.00;100881.59;5010523;28;20025;-74
2023/01/02 04:26:48;;;;;;;0.00;0.00;;;;;;;11.76;100.00;100910.38;4999978;28;20069;-75
2023/01/02 04:29:14;;;;;;;0.10;0.10;;;;;;;11.62;100.00;100919.56;5015818;28;20377;-74
2023/01/02 04:31:42;;;;;;;0.10;0.10;;;;;;;11.62;100.00;100909.66;4993470;28;20468;-73
2023/01/02 04:34:11;;;;;;;0.10;0.10;;;;;;;11.50;100.00;100916.03;5016077;28;20474;-74
2023/01/02 04:36:38;;;;;;;0.10;0.10;;;;;;;11.28;100.00;100912.38;4995049;28;20029;-72
2023/01/02 04:39:03;;;;;;;0.10;0.10;;;;;;;11.33;100.00;100885.13;5006806;28;20064;-73
2023/01/02 04:41:29;;;;;;;0.10;0.10;;;;;;;11.65;100.00;100906.72;5012612;28;20595;-73
2023/01/02 04:43:55;;;;;;;0.10;0.10;;;;;;;11.41;100.00;100936.44;5008420;28;20476;-73
2023/01/02 04:46:21;;;;;;;0.10;0.10;;;;;;;11.51;100.00;100925.81;5013860;28;20040;-73
2023/01/02 04:48:46;;;;;;;0.10;0.10;;;;;;;11.37;100.00;100937.69;5015711;28;20025;-72
2023/01/02 04:51:12;;;;;;;0.10;0.10;;;;;;;11.24;100.00;100892.09;5012033;28;20044;-73
2023/01/02 04:53:37;;;;;;;0.10;0.10;;;;;;;11.22;100.00;100929.00;5012370;28;20112;-72
2023/01/02 04:56:02;;;;;;;0.10;0.10;;;;;;;11.25;100.00;100934.97;5013611;28;20033;-74
2023/01/02 04:58:28;;;;;;;0.10;0.10;;;;;;;11.26;100.00;100922.38;5015449;28;20049;-76
2023/01/02 05:00:53;;;;;;;0.00;0.00;;;;;;;11.62;100.00;100928.47;5012873;28;20029;-74
2023/01/02 05:03:19;;;;;;;0.10;0.10;;;;;;;11.43;100.00;100931.78;4993302;28;20075;-73
2023/01/02 05:05:44;;;;;;;0.10;0.10;;;;;;;11.15;100.00;100917.84;5013967;28;20025;-74
2023/01/02 05:08:09;;;;;;;0.10;0.10;;;;;;;11.23;100.00;100941.47;5011799;28;20036;-73
2023/01/02 05:10:35;;;;;;;0.10;0.10;;;;;;;11.16;100.00;100907.97;5009949;28;20034;-73
2023/01/02 05:13:00;;;;;;;0.00;0.00;;;;;;;11.35;100.00;100935.09;5003552;28;20040;-74
2023/01/02 05:15:25;;;;;;;0.10;0.10;;;;;;;11.13;100.00;100927.03;5006063;28;20574;-76
2023/01/02 05:17:51;;;;;;;0.10;0.10;;;;;;;11.24;100.00;100905.56;4996144;28;20496;-72
2023/01/02 05:20:16;;;;;;;0.10;0.10;;;;;;;11.30;100.00;100958.78;5010018;28;20136;-74
2023/01/02 05:25:30;;;;;;;0.10;0.10;;;;;;;11.48;100.00;100940.34;5006196;28;20040;-74
2023/01/02 05:27:55;;;;;;;0.10;0.10;;;;;;;11.35;100.00;100926.19;5009568;28;20034;-74
2023/01/02 05:30:21;;;;;;;0.10;0.10;;;;;;;11.30;100.00;100977.59;5012672;28;20029;-73
2023/01/02 05:32:47;;;;;;;0.10;0.10;;;;;;;11.29;100.00;100954.41;5009718;28;20580;-73
2023/01/02 05:35:12;;;;;;;0.10;0.10;;;;;;;11.38;100.00;100942.09;5000550;28;20078;-74
2023/01/02 05:37:38;;;;;;;0.10;0.10;;;;;;;11.45;100.00;100945.97;5013357;28;20025;-73
2023/01/02 05:40:04;;;;;;;0.10;0.10;;;;;;;11.45;100.00;100959.41;5022817;28;20030;-73
2023/01/02 05:42:29;;;;;;;0.10;0.10;;;;;;;11.53;100.00;100965.03;5018369;28;20030;-73
2023/01/02 05:44:54;;;;;;;0.10;0.10;;;;;;;11.56;100.00;100969.31;5022439;28;20041;-73
2023/01/02 05:47:20;;;;;;;0.10;0.10;;;;;;;11.72;100.00;100974.31;5021325;28;20022;-73
2023/01/02 05:49:45;;;;;;;0.10;0.10;;;;;;;11.55;100.00;100955.03;5022598;28;20433;-73
2023/01/02 05:52:10;;;;;;;0.10;0.10;;;;;;;11.39;100.00;100955.38;5021060;28;20033;-72
2023/01/02 05:54:36;;;;;;;0.00;0.00;;;;;;;11.55;100.00;100975.66;5017826;28;20053;-72
2023/01/02 05:57:01;;;;;;;0.10;0.10;;;;;;;11.60;100.00;100983.38;5036036;28;20037;-73
2023/01/02 05:59:26;;;;;;;0.10;0.10;;;;;;;11.79;100.00;100980.03;5012716;28;20085;-73
2023/01/02 06:01:52;;;;;;;0.10;0.10;;;;;;;11.63;100.00;100975.91;5019041;28;20495;-74
2023/01/02 06:04:17;;;;;;;0.00;0.00;;;;;;;11.72;100.00;100981.53;5013113;28;20320;-74
2023/01/02 06:06:42;;;;;;;0.00;0.00;;;;;;;11.64;100.00;100956.09;5021554;28;20128;-75
2023/01/02 06:09:11;;;;;;;0.10;0.10;;;;;;;11.79;100.00;100980.91;5018208;28;20039;-74
2023/01/02 06:11:37;;;;;;;0.10;0.10;;;;;;;11.82;100.00;100958.28;5019729;28;20048;-73
2023/01/02 06:14:02;;;;;;;0.10;0.10;;;;;;;11.58;100.00;100974.56;5016741;28;20042;-74
2023/01/02 06:16:28;;;;;;;0.10;0.10;;;;;;;11.57;100.00;100964.78;5017324;28;20037;-73
2023/01/02 06:18:54;;;;;;;0.05;0.05;;;;;;;11.72;100.00;100995.00;5023501;28;20064;-74
2023/01/02 06:21:20;;;;;;;0.10;0.10;;;;;;;11.74;100.00;100990.34;5021460;28;20729;-74
2023/01/02 06:23:46;;;;;;;0.10;0.10;;;;;;;11.38;100.00;100988.63;5024927;28;20036;-74
2023/01/02 06:26:17;;;;;;;0.05;0.05;;;;;;;11.44;100.00;101002.56;5018445;28;20033;-74
2023/01/02 06:28:43;;;;;;;0.10;0.10;;;;;;;11.25;100.00;101001.31;5021280;28;20080;-74
2023/01/02 06:31:11;;;;;;;0.10;0.10;;;;;;;11.36;100.00;101019.31;5020935;28;20373;-75
2023/01/02 06:33:36;;;;;;;0.00;0.00;;;;;;;11.28;100.00;101037.84;5018637;28;20468;-74
2023/01/02 06:36:08;;;;;;;0.10;0.10;;;;;;;11.33;100.00;101008.78;5004217;28;20045;-74
2023/01/02 06:38:33;;;;;;;0.10;0.10;;;;;;;11.05;100.00;101006.41;5003056;28;20026;-74
2023/01/02 06:40:59;;;;;;;0.10;0.10;;;;;;;11.09;100.00;101041.97;5020294;28;20087;-73
2023/01/02 06:43:26;;;;;;;0.00;0.00;;;;;;;11.18;100.00;101075.34;5019764;28;20049;-73
2023/01/02 06:45:51;;;;;;;0.10;0.10;;;;;;;10.93;100.00;101069.16;5012193;28;20040;-75
2023/01/02 06:48:17;;;;;;;0.10;0.10;;;;;;;10.87;100.00;101110.75;5022415;28;20025;-75
2023/01/02 06:50:43;;;;;;;0.00;0.00;;;;;;;10.44;100.00;101073.66;5016016;28;20041;-76
2023/01/02 06:53:09;;;;;;;0.00;0.00;;;;;;;10.28;100.00;101081.94;5002676;28;20529;-77
2023/01/02 06:55:34;;;;;;;0.00;0.00;;;;;;;10.14;100.00;101089.19;5018828;28;20041;-77
2023/01/02 06:57:59;;;;;;;0.10;0.10;;;;;;;10.15;100.00;101120.41;5013735;28;20025;-77
2023/01/02 07:00:25;;;;;;;0.10;0.10;;;;;;;9.96;100.00;101110.13;5014316;28;20467;-77
2023/01/02 07:02:50;;;;;;;0.10;0.10;;;;;;;10.00;100.00;101143.81;5016851;28;20124;-77
2023/01/02 07:05:15;;;;;;;0.10;0.10;;;;;;;9.66;100.00;101130.09;5000531;28;20068;-77
2023/01/02 07:07:41;;;;;;;0.03;0.03;;;;;;;9.53;100.00;101127.41;5025540;28;20376;-78
2023/01/02 07:10:07;;;;;;;0.10;0.10;;;;;;;9.59;100.00;101144.88;5023387;28;20075;-78
2023/01/02 07:12:36;;;;;;;0.00;0.00;;;;;;;9.52;100.00;101168.56;5011298;28;20033;-76
2023/01/02 07:15:03;;;;;;;0.00;0.00;;;;;;;9.37;100.00;101137.47;4998135;28;20030;-77
2023/01/02 07:17:29;;;;;;;0.03;0.03;;;;;;;9.41;100.00;101163.94;5000161;28;20659;-77
2023/01/02 07:19:54;;;;;;;0.00;0.00;;;;;;;9.25;100.00;101169.47;5012998;28;20037;-78
2023/01/02 07:22:20;;;;;;;0.00;0.00;;;;;;;9.48;100.00;101190.34;5022653;28;20071;-78
2023/01/02 07:24:45;;;;;;;0.00;0.00;;;;;;;9.33;100.00;101193.06;5021000;28;20075;-78
2023/01/02 07:27:10;;;;;;;0.00;0.00;;;;;;;9.28;100.00;101209.47;5023087;28;20044;-78
2023/01/02 07:29:36;;;;;;;0.08;0.08;;;;;;;9.11;100.00;101201.69;5010423;28;20053;-77
2023/01/02 07:32:01;;;;;;;0.00;0.00;;;;;;;9.10;100.00;101224.94;5019709;28;20530;-77
2023/01/02 07:34:26;;;;;;;0.03;0.03;;;;;;;9.11;100.00;101223.97;5017625;28;20394;-78
2023/01/02 07:36:52;;;;;;;0.10;0.10;;;;;;;8.97;100.00;101214.16;5019176;28;20112;-77
2023/01/02 07:39:17;;;;;;;0.00;0.00;;;;;;;8.80;100.00;101220.59;5020817;28;20472;-77
2023/01/02 07:41:42;;;;;;;0.00;0.00;;;;;;;8.77;100.00;101249.41;5017791;28;20025;-78
2023/01/02 07:44:07;;;;;;;0.10;0.10;;;;;;;8.89;100.00;101245.06;5014150;28;20431;-77
2023/01/02 07:46:33;;;;;;;0.00;0.00;;;;;;;8.79;100.00;101250.16;5013203;28;20070;-77
2023/01/02 07:48:58;;;;;;;0.00;0.00;;;;;;;8.91;100.00;101264.59;5018454;28;20061;-76
2023/01/02 07:51:23;;;;;;;0.00;0.00;;;;;;;8.86;100.00;101272.91;5018020;28;20147;-77
2023/01/02 07:53:49;;;;;;;0.10;0.10;;;;;;;8.57;100.00;101235.47;5007727;28;20518;-77
2023/01/02 07:56:14;;;;;;;0.10;0.10;;;;;;;8.86;100.00;101288.97;5019072;28;20034;-79
2023/01/02 07:58:39;;;;;;;0.00;0.00;;;;;;;8.82;100.00;101276.75;5017701;28;20060;-77
2023/01/02 08:01:09;;;;;;;0.00;0.00;;;;;;;8.81;100.00;101294.59;5023140;28;20144;-77
2023/01/02 08:03:35;;;;;;;0.10;0.10;;;;;;;8.66;100.00;101287.56;5020616;28;20049;-77
2023/01/02 08:06:05;;;;;;;0.10;0.10;;;;;;;8.79;100.00;101315.25;5011555;28;20284;-77
2023/01/02 08:08:30;;;;;;;0.10;0.10;;;;;;;8.82;100.00;101317.75;5017425;28;20025;-77
2023/01/02 08:10:55;;;;;;;0.10;0.10;;;;;;;8.70;100.00;101308.69;5020761;28;20091;-78
2023/01/02 08:13:21;;;;;;;0.00;0.00;;;;;;;8.76;100.00;101311.94;4997019;28;20469;-75
2023/01/02 08:15:46;;;;;;;0.10;0.10;;;;;;;8.82;100.00;101330.28;5019384;28;20029;-76
2023/01/02 08:18:11;;;;;;;0.10;0.10;;;;;;;8.70;100.00;101331.94;5014551;28;20037;-78
2023/01/02 08:20:38;;;;;;;0.10;0.10;;;;;;;8.78;100.00;101350.19;5015108;28;20033;-78
2023/01/02 08:23:03;;;;;;;0.10;0.10;;;;;;;8.70;100.00;101338.13;5017446;28;20506;-77
2023/01/02 08:25:28;;;;;;;0.00;0.00;;;;;;;8.92;100.00;101371.59;5015678;28;20029;-77
2023/01/02 08:27:54;;;;;;;0.10;0.10;;;;;;;8.74;100.00;101359.34;5018232;28;20029;-78
2023/01/02 08:30:19;;;;;;;0.00;0.00;;;;;;;8.79;100.00;101344.72;5016411;28;20029;-77
2023/01/02 08:32:44;;;;;;;0.10;0.10;;;;;;;8.89;100.00;101365.56;5016505;28;20059;-77
2023/01/02 08:35:10;;;;;;;0.10;0.10;;;;;;;8.98;100.00;101395.31;5020293;28;20029;-76
2023/01/02 08:37:35;;;;;;;0.00;0.00;;;;;;;8.84;100.00;101373.91;5014982;28;20099;-77
2023/01/02 08:40:00;;;;;;;0.10;0.10;;;;;;;8.74;100.00;101380.78;5021555;28;20480;-77
2023/01/02 08:42:26;;;;;;;0.10;0.10;;;;;;;8.69;100.00;101371.19;5018417;28;20033;-76
2023/01/02 08:44:52;;;;;;;0.10;0.10;;;;;;;8.81;100.00;101380.28;5000434;28;20025;-76
2023/01/02 08:47:17;;;;;;;0.00;0.00;;;;;;;8.67;100.00;101393.69;5007687;28;20029;-75
2023/01/02 08:49:43;;;;;;;0.10;0.10;;;;;;;8.56;100.00;101378.28;5011356;28;20070;-77
2023/01/02 08:52:08;;;;;;;0.00;0.00;;;;;;;8.74;100.00;101410.22;4997255;28;20372;-76
2023/01/02 08:54:34;;;;;;;0.10;0.10;;;;;;;8.60;100.00;101406.59;5018275;28;20357;-76
2023/01/02 08:56:59;;;;;;;0.10;0.10;;;;;;;8.52;100.00;101416.88;5039992;28;20335;-76
2023/01/02 08:59:25;;;;;;;0.10;0.10;;;;;;;8.33;100.00;101398.34;5020508;28;20025;-76
2023/01/02 09:01:51;;;;;;;0.10;0.10;;;;;;;8.57;100.00;101435.31;5019822;28;20480;-76
2023/01/02 09:04:16;;;;;;;0.10;0.10;;;;;;;8.61;100.00;101448.44;5018099;28;20116;-76
2023/01/02 09:06:42;;;;;;;0.03;0.03;;;;;;;8.49;100.00;101447.34;4994786;28;20143;-76
2023/01/02 09:09:08;;;;;;;0.10;0.10;;;;;;;8.37;100.00;101438.19;4999637;28;20036;-75
2023/01/02 09:11:36;;;;;;;0.10;0.10;;;;;;;8.54;100.00;101461.31;5015795;28;20128;-76
2023/01/02 09:14:02;;;;;;;0.10;0.10;;;;;;;8.49;100.00;101452.69;5000110;28;20034;-76
2023/01/02 09:16:28;;;;;;;0.10;0.10;;;;;;;8.25;100.00;101415.72;5016895;28;20040;-76
2023/01/02 09:18:55;;;;;;;0.10;0.10;;;;;;;8.53;100.00;101466.78;5016949;28;20391;-83
2023/01/02 09:21:21;;;;;;;0.10;0.10;;;;;;;8.41;100.00;101444.25;5018547;28;20033;-76
2023/01/02 09:23:46;;;;;;;0.10;0.10;;;;;;;8.39;100.00;101441.66;5012159;28;20428;-76
2023/01/02 09:26:12;;;;;;;0.10;0.10;;;;;;;8.56;100.00;101482.66;5011536;28;20039;-76
2023/01/02 09:28:37;;;;;;;0.10;0.10;;;;;;;8.43;100.00;101445.03;5011170;28;20026;-76
2023/01/02 09:31:06;;;;;;;0.10;0.10;;;;;;;8.53;100.00;101489.03;5000405;28;20124;-76
2023/01/02 09:33:32;;;;;;;0.10;0.10;;;;;;;8.49;100.00;101468.75;5006974;28;20028;-75
2023/01/02 09:36:02;;;;;;;0.10;0.10;;;;;;;8.48;100.00;101499.16;5019284;28;20033;-77
2023/01/02 09:38:27;;;;;;;0.10;0.10;;;;;;;8.39;100.00;101494.31;5018986;28;20033;-76
2023/01/02 09:40:53;;;;;;;0.10;0.10;;;;;;;8.49;100.00;101516.09;5020941;28;20025;-76
2023/01/02 09:43:36;;;;;;;0.10;0.10;;;;;;;8.50;100.00;101501.75;5019005;28;20400;-76
2023/01/02 09:46:02;;;;;;;0.10;0.10;;;;;;;8.47;100.00;101500.09;5000934;28;20142;-76
2023/01/02 09:48:31;;;;;;;0.10;0.10;;;;;;;8.51;100.00;101536.44;5021135;28;20041;-76
2023/01/02 09:50:57;;;;;;;0.10;0.10;;;;;;;8.41;100.00;101500.44;5023466;28;20526;-76
2023/01/02 09:53:22;;;;;;;0.10;0.10;;;;;;;8.55;100.00;101529.97;5021786;28;20037;-77
2023/01/02 09:56:07;;;;;;;0.00;0.00;;;;;;;8.51;100.00;101525.72;5016265;28;20076;-76
2023/01/02 09:58:45;;;;;;;0.10;0.10;;;;;;;8.63;100.00;101542.03;5008955;28;20033;-77
2023/01/02 10:01:36;;;;;;;0.10;0.10;;;;;;;8.63;100.00;101509.91;5026071;28;20036;-75
2023/01/02 10:04:04;;;;;;;0.10;0.10;;;;;;;8.75;100.00;101541.31;5021026;28;20079;-76
2023/01/02 10:06:45;;;;;;;0.10;0.10;;;;;;;8.69;100.00;101547.03;5011505;28;20109;-77
2023/01/02 10:09:16;;;;;;;0.10;0.10;;;;;;;8.76;100.00;101537.69;5015669;28;20034;-76
2023/01/02 10:11:58;;;;;;;0.10;0.10;;;;;;;8.61;100.00;101514.50;5024889;28;20025;-76
2023/01/02 10:14:36;;;;;;;0.10;0.10;;;;;;;8.87;100.00;101539.75;4997834;28;20033;-76
2023/01/02 10:17:02;;;;;;;0.10;0.10;;;;;;;8.82;100.00;101536.47;4998069;28;20025;-76
2023/01/02 10:19:44;;;;;;;0.10;0.10;;;;;;;8.83;100.00;101551.59;5021935;28;20029;-75
2023/01/02 10:22:12;;;;;;;0.00;0.00;;;;;;;8.84;100.00;101556.84;5026747;28;20036;-75
2023/01/02 10:24:43;;;;;;;0.10;0.10;;;;;;;8.64;100.00;101530.38;5018771;28;20026;-76
2023/01/02 10:27:18;;;;;;;0.10;0.10;;;;;;;8.83;100.00;101548.91;5005525;28;20025;-76
2023/01/02 10:29:58;;;;;;;0.10;0.10;;;;;;;8.53;100.00;101525.66;5019369;28;20135;-76
2023/01/02 10:32:26;;;;;;;0.10;0.10;;;;;;;8.56;100.00;101530.84;5017706;28;20034;-76
2023/01/02 10:35:09;;;;;;;0.10;0.10;;;;;;;8.76;100.00;101547.53;5009059;28;20445;-76
2023/01/02 10:37:35;;;;;;;0.10;0.10;;;;;;;8.48;100.00;101520.56;5023921;28;20033;-75
2023/01/02 10:40:00;;;;;;;0.10;0.10;;;;;;;8.65;100.00;101516.06;5021878;28;20044;-76
2023/01/02 10:42:26;;;;;;;0.10;0.10;;;;;;;8.69;100.00;101529.16;5014656;28;20040;-75
2023/01/02 10:44:51;;;;;;;0.10;0.10;;;;;;;8.50;100.00;101515.13;5014476;28;20063;-76
2023/01/02 10:47:21;;;;;;;0.00;0.00;;;;;;;8.84;100.00;101550.63;5014789;28;20530;-76
2023/01/02 10:49:48;;;;;;;0.10;0.10;;;;;;;8.55;100.00;101543.34;5022150;28;20021;-77
2023/01/02 10:52:33;;;;;;;0.10;0.10;;;;;;;8.79;100.00;101579.50;5002729;28;20169;-77
2023/01/02 10:54:59;;;;;;;0.10;0.10;;;;;;;8.76;100.00;101569.81;5019260;28;20026;-77
2023/01/02 10:57:42;;;;;;;0.10;0.10;;;;;;;8.74;100.00;101579.75;5018568;28;20070;-78
2023/01/02 11:00:16;;;;;;;0.10;0.10;;;;;;;8.84;100.00;101575.59;5020018;28;20052;-77
2023/01/02 11:02:42;;;;;;;0.10;0.10;;;;;;;8.65;100.00;101557.06;5018336;28;20507;-77
2023/01/02 11:05:18;;;;;;;0.10;0.10;;;;;;;8.61;100.00;101557.34;5020908;28;20120;-77
2023/01/02 11:07:46;;;;;;;0.10;0.10;;;;;;;8.64;100.00;101570.53;5012532;28;20327;-76
2023/01/02 11:10:36;;;;;;;0.10;0.10;;;;;;;8.54;100.00;101563.03;5021317;28;20140;-78
2023/01/02 11:13:16;;;;;;;0.10;0.10;;;;;;;8.74;100.00;101587.78;5017251;28;20025;-76
2023/01/02 11:16:00;;;;;;;0.10;0.10;;;;;;;8.80;100.00;101590.09;5007442;28;20512;-76
2023/01/02 11:18:28;;;;;;;0.10;0.10;;;;;;;8.62;100.00;101584.00;5002709;28;20555;-77
2023/01/02 11:21:02;;;;;;;0.10;0.10;;;;;;;8.53;100.00;101582.72;5020725;28;20440;-76
2023/01/02 11:23:27;;;;;;;;;;;;;;;8.75;100.00;101610.06;5018480;28;20393;-78
2023/01/02 11:25:53;;;;;;;0.03;0.03;;;;;;;8.58;100.00;101611.91;5004685;28;20008;-78
2023/01/02 11:28:22;;;;;;;0.10;0.10;;;;;;;8.69;100.00;101613.97;5039234;28;20034;-77